Genie — WDF8288 — position and weather

sailwx.info

Track history (hours):
 
Tides and Currents Weather Stations Pressure Air Temp Water Temp Dewpoint Dewpoint Depression Visibility Wind Speed Wind Dir Waves Ship Positions

Genie

Owner: Enterprise Marine Services, LLC, San Antonio, TX. More information available from US FCC via Universal Licensing System and Coast Guard Vessel Documentation Center.

Last reported at 2017-Sep-22 02:00 UTC. Time now 2017-Sep-22 04:35 UTC.
Position N 29°46' W 095°05'.

Length 34 m; draft 2.9 m.

Type: Tug. MMSI: 367407750.

Date/timePositionNaut miles runAvg speedWind from/ knotsBaromVisibWave heightAir tempDewpointWater temp
2017-Sep-22 02:00N 29°46' W 095°05'2 3.3
2017-Sep-22 01:30N 29°47' W 095°05'0 0.0
2017-Sep-21 15:29N 29°47' W 095°04'0 0.6
2017-Sep-21 14:53N 29°47' W 095°05'0 0.1
2017-Sep-21 13:29N 29°47' W 095°05'1 0.2
2017-Sep-21 10:42N 29°47' W 095°05'0 1.1
2017-Sep-21 10:18N 29°46' W 095°05'2 6.5
2017-Sep-21 09:58N 29°45' W 095°06'3 6.4
2017-Sep-21 09:28N 29°45' W 095°10'0 0.0
2017-Sep-20 13:13N 29°45' W 095°10'0 1.3
2017-Sep-20 13:00N 29°45' W 095°10'2 0.1
2017-Sep-18 20:00N 29°44' W 095°12'2 3.5
2017-Sep-18 19:23N 29°45' W 095°10'2 5.5
2017-Sep-18 19:00N 29°44' W 095°07'2 4.4
2017-Sep-18 18:28N 29°46' W 095°05'2 2.4
2017-Sep-18 17:28N 29°47' W 095°04'0 0.0
2017-Sep-18 16:56N 29°47' W 095°04'0 0.3
2017-Sep-18 16:29N 29°47' W 095°04'0 0.0
2017-Sep-18 16:00N 29°47' W 095°04'0 0.0
2017-Sep-18 15:30N 29°47' W 095°04'0 0.0
2017-Sep-18 14:59N 29°47' W 095°04'  
2017-Sep-16 07:55N 29°47' W 095°04'1 1.2
2017-Sep-16 07:28N 29°47' W 095°05'0 0.0
2017-Sep-16 04:33N 29°47' W 095°05'1 0.1
2017-Sep-15 23:57N 29°47' W 095°04'0 0.0
2017-Sep-15 16:53N 29°47' W 095°04'0 0.2
2017-Sep-15 14:44N 29°47' W 095°04'0 0.0
2017-Sep-13 16:50N 29°47' W 095°04'1 3.5
2017-Sep-13 16:29N 29°46' W 095°05'2 4.6
2017-Sep-13 15:59N 29°44' W 095°03'2 4.2
2017-Sep-13 15:30N 29°43' W 095°01'2 4.0
2017-Sep-13 15:00N 29°42' W 094°59'3 5.0
2017-Sep-13 14:30N 29°39' W 094°58'3 5.5
2017-Sep-13 14:00N 29°37' W 094°57'3 5.5
2017-Sep-13 13:30N 29°34' W 094°56'3 5.6
2017-Sep-13 13:00N 29°32' W 094°54'  
Track history (hours):
 
Tides and Currents Weather Stations Pressure Air Temp Water Temp Dewpoint Dewpoint Depression Visibility Wind Speed Wind Dir Waves Ship Positions

Genie

Owner: Enterprise Marine Services, LLC, San Antonio, TX. More information available from US FCC via Universal Licensing System and Coast Guard Vessel Documentation Center.

Last reported at 2017-Sep-22 02:00 UTC. Time now 2017-Sep-22 04:35 UTC.
Position N 29°46' W 095°05'.

Length 34 m; draft 2.9 m.

Type: Tug. MMSI: 367407750.

Date/timePositionNaut miles runAvg speedWind from/ knotsBaromVisibWave heightAir tempDewpointWater temp
2017-Sep-22 02:00N 29°46' W 095°05'2 3.3
2017-Sep-22 01:30N 29°47' W 095°05'0 0.0
2017-Sep-21 15:29N 29°47' W 095°04'0 0.6
2017-Sep-21 14:53N 29°47' W 095°05'0 0.1
2017-Sep-21 13:29N 29°47' W 095°05'1 0.2
2017-Sep-21 10:42N 29°47' W 095°05'0 1.1
2017-Sep-21 10:18N 29°46' W 095°05'2 6.5
2017-Sep-21 09:58N 29°45' W 095°06'3 6.4
2017-Sep-21 09:28N 29°45' W 095°10'0 0.0
2017-Sep-20 13:13N 29°45' W 095°10'0 1.3
2017-Sep-20 13:00N 29°45' W 095°10'2 0.1
2017-Sep-18 20:00N 29°44' W 095°12'2 3.5
2017-Sep-18 19:23N 29°45' W 095°10'2 5.5
2017-Sep-18 19:00N 29°44' W 095°07'2 4.4
2017-Sep-18 18:28N 29°46' W 095°05'2 2.4
2017-Sep-18 17:28N 29°47' W 095°04'0 0.0
2017-Sep-18 16:56N 29°47' W 095°04'0 0.3
2017-Sep-18 16:29N 29°47' W 095°04'0 0.0
2017-Sep-18 16:00N 29°47' W 095°04'0 0.0
2017-Sep-18 15:30N 29°47' W 095°04'0 0.0
2017-Sep-18 14:59N 29°47' W 095°04'  
2017-Sep-16 07:55N 29°47' W 095°04'1 1.2
2017-Sep-16 07:28N 29°47' W 095°05'0 0.0
2017-Sep-16 04:33N 29°47' W 095°05'1 0.1
2017-Sep-15 23:57N 29°47' W 095°04'0 0.0
2017-Sep-15 16:53N 29°47' W 095°04'0 0.2
2017-Sep-15 14:44N 29°47' W 095°04'0 0.0
2017-Sep-13 16:50N 29°47' W 095°04'1 3.5
2017-Sep-13 16:29N 29°46' W 095°05'2 4.6
2017-Sep-13 15:59N 29°44' W 095°03'2 4.2
2017-Sep-13 15:30N 29°43' W 095°01'2 4.0
2017-Sep-13 15:00N 29°42' W 094°59'3 5.0
2017-Sep-13 14:30N 29°39' W 094°58'3 5.5
2017-Sep-13 14:00N 29°37' W 094°57'3 5.5
2017-Sep-13 13:30N 29°34' W 094°56'3 5.6
2017-Sep-13 13:00N 29°32' W 094°54'  

Dump ship's entire track history